createdAt,value
2017-09-22T00:00:39.622Z,99.90
2017-09-22T00:03:06.681Z,99.90
2017-09-22T00:05:33.740Z,99.90
2017-09-22T00:08:00.779Z,99.90
2017-09-22T00:10:27.814Z,99.90
2017-09-22T00:12:54.116Z,99.90
2017-09-22T00:15:20.391Z,99.90
2017-09-22T00:17:47.423Z,99.90
2017-09-22T00:20:13.710Z,99.90
2017-09-22T00:22:40.002Z,99.90
2017-09-22T00:25:07.017Z,99.90
2017-09-22T00:27:33.310Z,99.90
2017-09-22T00:29:59.608Z,99.90
2017-09-22T00:32:26.640Z,99.90
2017-09-22T00:34:53.707Z,99.90
2017-09-22T00:37:20.750Z,99.90
2017-09-22T00:39:47.798Z,99.90
2017-09-22T00:42:14.882Z,99.90
2017-09-22T00:44:41.204Z,99.90
2017-09-22T00:47:07.514Z,99.90
2017-09-22T00:49:33.835Z,99.90
2017-09-22T00:52:00.882Z,99.90
2017-09-22T00:54:27.204Z,99.90
2017-09-22T00:56:53.510Z,99.90
2017-09-22T00:59:19.821Z,99.90
2017-09-22T01:01:46.327Z,99.90
2017-09-22T01:04:12.667Z,99.90
2017-09-22T01:06:39.552Z,99.90
2017-09-22T01:09:05.912Z,99.90
2017-09-22T01:11:32.242Z,99.90
2017-09-22T01:13:58.554Z,99.90
2017-09-22T01:16:24.830Z,99.90
2017-09-22T01:18:51.109Z,99.90
2017-09-22T01:21:18.155Z,99.90
2017-09-22T01:23:51.464Z,99.90
2017-09-22T01:26:18.511Z,99.90
2017-09-22T01:28:45.541Z,99.90
2017-09-22T01:31:12.588Z,99.90
2017-09-22T01:33:38.901Z,99.90
2017-09-22T01:36:06.686Z,99.90
2017-09-22T01:38:32.964Z,99.90
2017-09-22T01:40:59.271Z,99.90
2017-09-22T01:43:25.566Z,99.90
2017-09-22T01:45:51.881Z,99.90
2017-09-22T01:48:18.179Z,99.90
2017-09-22T01:50:44.466Z,99.90
2017-09-22T01:53:11.513Z,99.90
2017-09-22T01:55:38.565Z,99.90
2017-09-22T01:58:05.597Z,99.90
2017-09-22T02:00:31.886Z,99.90
2017-09-22T02:02:58.172Z,99.90
2017-09-22T02:05:25.185Z,99.90
2017-09-22T02:07:51.480Z,99.90
2017-09-22T02:10:18.497Z,99.90
2017-09-22T02:12:44.806Z,99.90
2017-09-22T02:15:11.857Z,99.90
2017-09-22T02:17:38.898Z,99.90
2017-09-22T02:20:05.930Z,99.90
2017-09-22T02:22:32.233Z,99.90
2017-09-22T02:24:58.522Z,99.90
2017-09-22T02:27:25.549Z,99.90
2017-09-22T02:29:51.821Z,99.90
2017-09-22T02:32:18.127Z,99.90
2017-09-22T02:34:45.150Z,99.90
2017-09-22T02:37:11.433Z,99.90
2017-09-22T02:39:37.714Z,99.90
2017-09-22T02:42:03.993Z,99.90
2017-09-22T02:44:30.284Z,99.90
2017-09-22T02:46:56.600Z,99.90
2017-09-22T02:49:22.898Z,99.90
2017-09-22T02:51:49.190Z,99.90
2017-09-22T02:54:16.241Z,99.90
2017-09-22T02:56:42.521Z,99.90
2017-09-22T02:59:08.824Z,99.90
2017-09-22T03:01:35.113Z,99.90
2017-09-22T03:04:02.169Z,99.90
2017-09-22T03:06:29.194Z,99.90
2017-09-22T03:08:56.254Z,99.90
2017-09-22T03:11:23.271Z,99.90
2017-09-22T03:13:49.583Z,99.90
2017-09-22T03:16:15.881Z,99.90
2017-09-22T03:18:42.156Z,99.90
2017-09-22T03:21:08.445Z,99.90
2017-09-22T03:23:34.738Z,99.90
2017-09-22T03:26:01.034Z,99.90
2017-09-22T03:28:27.320Z,99.90
2017-09-22T03:30:53.615Z,99.90
2017-09-22T03:33:21.377Z,99.90
2017-09-22T03:35:47.676Z,99.90
2017-09-22T03:38:13.949Z,99.90
2017-09-22T03:40:40.236Z,99.90
2017-09-22T03:43:06.510Z,99.90
2017-09-22T03:45:32.799Z,99.90
2017-09-22T03:47:59.086Z,99.90
2017-09-22T03:50:26.136Z,99.90
2017-09-22T03:52:53.152Z,99.90
2017-09-22T03:55:19.448Z,99.90
2017-09-22T03:57:46.509Z,99.90
2017-09-22T04:00:12.787Z,99.90
2017-09-22T04:02:39.081Z,99.90
2017-09-22T04:05:05.365Z,99.90
2017-09-22T04:07:31.650Z,99.90
2017-09-22T04:09:57.931Z,99.90
2017-09-22T04:12:24.220Z,99.90
2017-09-22T04:14:51.229Z,99.90
2017-09-22T04:17:17.582Z,99.90
2017-09-22T04:19:43.859Z,99.90
2017-09-22T04:22:10.144Z,99.90
2017-09-22T04:24:37.177Z,99.90
2017-09-22T04:27:03.487Z,99.90
2017-09-22T04:29:29.791Z,99.90
2017-09-22T04:31:56.079Z,99.90
2017-09-22T04:34:22.360Z,99.90
2017-09-22T04:36:48.686Z,99.90
2017-09-22T04:39:14.968Z,99.90
2017-09-22T04:41:41.318Z,99.90
2017-09-22T04:44:08.364Z,99.90
2017-09-22T04:46:35.386Z,99.90
2017-09-22T04:49:01.676Z,99.90
2017-09-22T04:51:27.965Z,99.90
2017-09-22T04:53:54.993Z,99.90
2017-09-22T04:56:21.280Z,99.90
2017-09-22T04:58:47.574Z,99.90
2017-09-22T05:01:14.604Z,99.90
2017-09-22T05:03:40.906Z,99.90
2017-09-22T05:06:07.192Z,99.90
2017-09-22T05:08:33.486Z,99.90
2017-09-22T05:10:59.775Z,99.90
2017-09-22T05:13:26.094Z,99.90
2017-09-22T05:15:52.366Z,99.90
2017-09-22T05:18:18.685Z,99.90
2017-09-22T05:20:44.983Z,99.90
2017-09-22T05:23:11.283Z,99.90
2017-09-22T05:25:38.336Z,99.90
2017-09-22T05:28:05.406Z,99.90
2017-09-22T05:30:31.710Z,99.90
2017-09-22T05:32:58.730Z,99.90
2017-09-22T05:35:25.047Z,99.90
2017-09-22T05:37:51.323Z,99.90
2017-09-22T05:40:18.354Z,99.90
2017-09-22T05:42:45.386Z,99.90
2017-09-22T05:45:11.699Z,99.90
2017-09-22T05:47:38.009Z,99.90
2017-09-22T05:50:04.318Z,99.90
2017-09-22T05:52:30.598Z,99.90
2017-09-22T05:54:56.887Z,99.90
2017-09-22T05:57:23.198Z,99.90
2017-09-22T05:59:49.483Z,99.90
2017-09-22T06:02:15.793Z,99.90
2017-09-22T06:04:42.097Z,99.90
2017-09-22T06:07:08.447Z,99.90
2017-09-22T06:09:34.824Z,99.90
2017-09-22T06:12:01.124Z,99.90
2017-09-22T06:14:27.423Z,99.90
2017-09-22T06:16:53.723Z,99.90
2017-09-22T06:19:20.017Z,99.90
2017-09-22T06:21:47.092Z,99.90
2017-09-22T06:24:13.411Z,99.90
2017-09-22T06:26:40.470Z,99.90
2017-09-22T06:29:07.509Z,99.90
2017-09-22T06:31:33.790Z,99.90
2017-09-22T06:34:00.095Z,99.90
2017-09-22T06:36:27.165Z,99.90
2017-09-22T06:38:53.465Z,99.90
2017-09-22T06:41:20.495Z,99.90
2017-09-22T06:43:46.826Z,99.90
2017-09-22T06:46:13.113Z,99.90
2017-09-22T06:48:40.440Z,99.90
2017-09-22T06:51:06.746Z,99.90
2017-09-22T06:53:33.805Z,99.90
2017-09-22T06:56:00.860Z,99.90
2017-09-22T06:58:27.193Z,99.90
2017-09-22T07:00:53.491Z,99.90
2017-09-22T07:03:20.802Z,99.90
2017-09-22T07:05:47.208Z,99.90
2017-09-22T07:08:13.495Z,99.90
2017-09-22T07:10:39.820Z,99.90
2017-09-22T07:13:06.896Z,99.90
2017-09-22T07:15:33.940Z,99.90
2017-09-22T07:18:00.996Z,99.90
2017-09-22T07:20:28.046Z,99.90
2017-09-22T07:22:54.349Z,99.90
2017-09-22T07:25:20.657Z,99.90
2017-09-22T07:27:47.951Z,99.90
2017-09-22T07:30:15.946Z,99.90
2017-09-22T07:32:42.250Z,99.90
2017-09-22T07:35:09.314Z,99.90
2017-09-22T07:37:36.325Z,99.90
2017-09-22T07:40:02.609Z,99.90
2017-09-22T07:42:28.933Z,99.90
2017-09-22T07:44:55.213Z,99.90
2017-09-22T07:47:22.297Z,99.90
2017-09-22T07:49:48.591Z,99.90
2017-09-22T07:52:15.629Z,99.90
2017-09-22T07:54:42.671Z,99.90
2017-09-22T07:57:10.473Z,99.90
2017-09-22T07:59:37.514Z,99.90
2017-09-22T08:02:04.577Z,99.90
2017-09-22T08:04:31.603Z,99.90
2017-09-22T08:06:59.611Z,99.90
2017-09-22T08:09:25.906Z,99.90
2017-09-22T08:11:52.964Z,99.90
2017-09-22T08:14:19.269Z,99.90
2017-09-22T08:16:46.349Z,99.90
2017-09-22T08:19:13.374Z,99.90
2017-09-22T08:21:40.421Z,99.90
2017-09-22T08:24:07.476Z,99.90
2017-09-22T08:26:34.515Z,99.90
2017-09-22T08:29:01.546Z,99.90
2017-09-22T08:31:27.845Z,99.90
2017-09-22T08:33:54.467Z,99.90
2017-09-22T08:36:20.773Z,99.90
2017-09-22T08:38:47.083Z,99.90
2017-09-22T08:41:13.424Z,99.90
2017-09-22T08:43:40.456Z,99.90
2017-09-22T08:46:06.731Z,99.90
2017-09-22T08:48:33.033Z,99.90
2017-09-22T08:51:00.105Z,99.90
2017-09-22T08:53:26.396Z,99.90
2017-09-22T08:55:53.426Z,99.90
2017-09-22T08:58:20.499Z,99.90
2017-09-22T09:00:47.572Z,99.90
2017-09-22T09:03:14.604Z,99.90
2017-09-22T09:05:41.823Z,99.90
2017-09-22T09:08:09.107Z,99.90
2017-09-22T09:10:35.433Z,99.90
2017-09-22T09:13:02.477Z,99.90
2017-09-22T09:15:28.803Z,99.90
2017-09-22T09:17:55.102Z,99.90
2017-09-22T09:20:21.395Z,99.90
2017-09-22T09:22:47.695Z,99.90
2017-09-22T09:25:14.743Z,99.90
2017-09-22T09:27:41.784Z,99.90
2017-09-22T09:30:08.866Z,99.90
2017-09-22T09:32:35.168Z,99.90
2017-09-22T09:35:02.222Z,99.90
2017-09-22T09:37:28.558Z,99.90
2017-09-22T09:39:54.879Z,99.90
2017-09-22T09:42:21.930Z,99.90
2017-09-22T09:44:48.994Z,99.90
2017-09-22T09:47:15.330Z,99.90
2017-09-22T09:49:42.538Z,99.90
2017-09-22T09:52:09.588Z,99.90
2017-09-22T09:54:36.646Z,99.90
2017-09-22T09:57:03.738Z,99.90
2017-09-22T09:59:30.037Z,99.90
2017-09-22T10:01:56.410Z,99.90
2017-09-22T10:04:22.729Z,99.90
2017-09-22T10:06:49.308Z,99.90
2017-09-22T10:09:15.809Z,99.90
2017-09-22T10:11:42.156Z,99.90
2017-09-22T10:14:09.242Z,99.90
2017-09-22T10:16:35.565Z,99.90
2017-09-22T10:19:02.624Z,99.90
2017-09-22T10:21:28.956Z,99.90
2017-09-22T10:23:55.292Z,99.90
2017-09-22T10:26:21.589Z,99.90
2017-09-22T10:28:48.757Z,99.90
2017-09-22T10:31:15.794Z,99.90
2017-09-22T10:33:42.110Z,99.90
2017-09-22T10:36:08.450Z,99.90
2017-09-22T10:38:35.546Z,99.90
2017-09-22T10:41:01.869Z,99.90
2017-09-22T10:43:28.177Z,99.90
2017-09-22T10:45:54.530Z,99.90
2017-09-22T10:48:20.826Z,99.90
2017-09-22T10:50:47.133Z,99.90
2017-09-22T10:53:14.174Z,99.90
2017-09-22T10:55:40.498Z,99.90
2017-09-22T10:58:08.308Z,99.90
2017-09-22T11:00:34.619Z,99.90
2017-09-22T11:03:00.937Z,99.90
2017-09-22T11:05:27.259Z,99.90
2017-09-22T11:07:54.325Z,99.90
2017-09-22T11:10:21.400Z,99.90
2017-09-22T11:12:47.690Z,99.90
2017-09-22T11:15:14.739Z,99.90
2017-09-22T11:17:41.045Z,99.90
2017-09-22T11:20:07.363Z,99.90
2017-09-22T11:22:33.676Z,99.90
2017-09-22T11:24:59.977Z,99.90
2017-09-22T11:27:27.021Z,99.90
2017-09-22T11:29:54.114Z,99.90
2017-09-22T11:32:20.414Z,99.90
2017-09-22T11:34:46.717Z,99.90
2017-09-22T11:37:13.778Z,99.90
2017-09-22T11:39:40.834Z,99.90
2017-09-22T11:42:07.238Z,99.90
2017-09-22T11:44:35.018Z,99.90
2017-09-22T11:47:02.065Z,99.90
2017-09-22T11:49:29.109Z,99.90
2017-09-22T11:51:56.411Z,99.90
2017-09-22T11:54:22.715Z,99.90
2017-09-22T11:56:49.014Z,99.90
2017-09-22T11:59:16.084Z,99.90
2017-09-22T12:01:42.403Z,99.90
2017-09-22T12:04:08.714Z,99.90
2017-09-22T12:06:35.743Z,99.90
2017-09-22T12:09:02.108Z,99.90
2017-09-22T12:11:29.166Z,99.90
2017-09-22T12:13:56.238Z,99.90
2017-09-22T12:16:22.551Z,99.90
2017-09-22T12:18:48.853Z,99.90
2017-09-22T12:21:15.922Z,99.90
2017-09-22T12:23:42.200Z,99.90
2017-09-22T12:26:08.542Z,99.90
2017-09-22T12:28:34.846Z,99.90
2017-09-22T12:31:01.159Z,99.90
2017-09-22T12:33:27.486Z,99.90
2017-09-22T12:35:53.821Z,99.90
2017-09-22T12:38:20.130Z,99.90
2017-09-22T12:40:46.471Z,99.90
2017-09-22T12:43:12.787Z,99.90
2017-09-22T12:45:39.129Z,99.90
2017-09-22T12:48:05.455Z,99.90
2017-09-22T12:50:31.758Z,99.90
2017-09-22T12:52:58.812Z,99.90
2017-09-22T12:55:25.867Z,99.90
2017-09-22T12:57:52.934Z,99.90
2017-09-22T13:00:19.237Z,99.90
2017-09-22T13:02:46.341Z,99.90
2017-09-22T13:05:12.787Z,99.90
2017-09-22T13:07:39.124Z,99.90
2017-09-22T13:10:05.838Z,99.90
2017-09-22T13:12:32.173Z,99.90
2017-09-22T13:14:58.535Z,99.90
2017-09-22T13:17:25.644Z,99.90
2017-09-22T13:19:51.972Z,99.90
2017-09-22T13:22:18.296Z,99.90
2017-09-22T13:24:45.537Z,99.90
2017-09-22T13:27:11.843Z,99.90
2017-09-22T13:29:38.940Z,99.90
2017-09-22T13:32:05.239Z,99.90
2017-09-22T13:34:31.575Z,99.90
2017-09-22T13:36:57.878Z,99.90
2017-09-22T13:39:25.549Z,99.90
2017-09-22T13:41:52.597Z,99.90
2017-09-22T13:44:19.684Z,99.90
2017-09-22T13:46:46.037Z,99.90
2017-09-22T13:49:12.344Z,99.90
2017-09-22T13:51:38.635Z,99.90
2017-09-22T13:54:05.735Z,99.90
2017-09-22T13:56:32.112Z,99.90
2017-09-22T13:58:58.453Z,99.90
2017-09-22T14:01:25.501Z,98.90
2017-09-22T14:03:51.831Z,98.90
2017-09-22T14:06:18.154Z,99.90
2017-09-22T14:08:44.482Z,99.90
2017-09-22T14:11:11.538Z,99.90
2017-09-22T14:13:37.837Z,99.90
2017-09-22T14:16:05.661Z,99.90
2017-09-22T14:18:31.992Z,99.90
2017-09-22T14:20:58.306Z,99.90
2017-09-22T14:23:24.635Z,99.90
2017-09-22T14:25:50.947Z,99.90
2017-09-22T14:28:17.269Z,99.90
2017-09-22T14:30:44.310Z,99.60
2017-09-22T14:33:11.350Z,97.40
2017-09-22T14:35:37.673Z,97.30
2017-09-22T14:38:04.014Z,94.60
2017-09-22T14:40:31.073Z,90.40
2017-09-22T14:42:57.384Z,90.30
2017-09-22T14:45:23.667Z,90.40
2017-09-22T14:47:49.968Z,87.80
2017-09-22T14:50:16.995Z,87.60
2017-09-22T14:52:44.039Z,86.80
2017-09-22T14:55:10.334Z,86.80
2017-09-22T14:57:36.661Z,88.60
2017-09-22T15:00:02.980Z,87.30
2017-09-22T15:02:29.280Z,88.80
2017-09-22T15:04:56.305Z,89.80
2017-09-22T15:07:22.610Z,89.70
2017-09-22T15:09:48.907Z,89.70
2017-09-22T15:12:15.196Z,90.70
2017-09-22T15:14:41.500Z,91.40
2017-09-22T15:17:07.809Z,93.10
2017-09-22T15:19:34.110Z,92.90
2017-09-22T15:22:01.143Z,95.80
2017-09-22T15:24:28.194Z,97.60
2017-09-22T15:26:55.230Z,99.20
2017-09-22T15:29:22.285Z,99.90
2017-09-22T15:31:48.613Z,99.90
2017-09-22T15:34:15.665Z,99.90
2017-09-22T15:36:42.693Z,99.90
2017-09-22T15:39:09.009Z,99.90
2017-09-22T15:41:35.375Z,99.90
2017-09-22T15:44:02.441Z,98.50
2017-09-22T15:46:28.711Z,98.50
2017-09-22T15:48:55.011Z,96.40
2017-09-22T15:51:21.341Z,95.80
2017-09-22T15:53:47.628Z,95.80
2017-09-22T15:56:14.705Z,95.40
2017-09-22T15:58:41.349Z,95.40
2017-09-22T16:01:07.717Z,95.10
2017-09-22T16:03:34.330Z,94.30
2017-09-22T16:06:00.666Z,93.20
2017-09-22T16:08:27.015Z,93.60
2017-09-22T16:10:53.329Z,92.90
2017-09-22T16:13:21.293Z,94.10
2017-09-22T16:15:47.637Z,94.10
2017-09-22T16:18:13.968Z,93.80
2017-09-22T16:20:40.379Z,93.20
2017-09-22T16:23:06.820Z,93.50
2017-09-22T16:25:33.431Z,93.70
2017-09-22T16:27:59.849Z,94.00
2017-09-22T16:30:26.938Z,96.10
2017-09-22T16:32:53.298Z,96.00
2017-09-22T16:35:19.792Z,96.80
2017-09-22T16:37:46.122Z,97.70
2017-09-22T16:40:12.433Z,98.50
2017-09-22T16:42:38.746Z,99.10
2017-09-22T16:45:05.795Z,99.90
2017-09-22T16:47:32.820Z,99.90
2017-09-22T16:49:59.189Z,99.90
2017-09-22T16:52:25.492Z,99.90
2017-09-22T16:54:51.827Z,99.90
2017-09-22T16:57:18.161Z,99.90
2017-09-22T16:59:45.194Z,99.90
2017-09-22T17:02:11.476Z,99.90
2017-09-22T17:04:37.816Z,99.90
2017-09-22T17:07:04.542Z,99.90
2017-09-22T17:09:32.057Z,99.90
2017-09-22T17:11:59.936Z,99.90
2017-09-22T17:14:26.328Z,99.90
2017-09-22T17:16:52.603Z,99.90
2017-09-22T17:19:19.668Z,99.90
2017-09-22T17:21:45.964Z,99.90
2017-09-22T17:24:13.723Z,99.90
2017-09-22T17:26:40.007Z,99.90
2017-09-22T17:29:06.294Z,99.90
2017-09-22T17:31:33.339Z,99.90
2017-09-22T17:33:59.701Z,99.90
2017-09-22T17:36:26.097Z,99.90
2017-09-22T17:38:53.141Z,99.90
2017-09-22T17:41:20.937Z,99.90
2017-09-22T17:43:47.277Z,99.90
2017-09-22T17:46:13.617Z,99.90
2017-09-22T17:48:39.906Z,99.90
2017-09-22T17:51:06.197Z,99.90
2017-09-22T17:53:32.514Z,99.90
2017-09-22T17:55:58.821Z,99.90
2017-09-22T17:58:25.093Z,99.90
2017-09-22T18:00:51.393Z,99.90
2017-09-22T18:03:17.686Z,99.90
2017-09-22T18:05:44.754Z,99.90
2017-09-22T18:08:11.045Z,99.90
2017-09-22T18:10:38.106Z,99.90
2017-09-22T18:13:04.430Z,99.90
2017-09-22T18:15:31.510Z,99.90
2017-09-22T18:17:57.797Z,99.90
2017-09-22T18:20:24.111Z,99.90
2017-09-22T18:22:50.464Z,99.90
2017-09-22T18:25:17.523Z,99.90
2017-09-22T18:27:44.543Z,99.90
2017-09-22T18:30:10.858Z,99.90
2017-09-22T18:32:37.124Z,99.90
2017-09-22T18:35:04.156Z,99.90
2017-09-22T18:37:31.196Z,99.90
2017-09-22T18:39:57.540Z,99.90
2017-09-22T18:42:24.617Z,99.90
2017-09-22T18:44:51.669Z,99.90
2017-09-22T18:47:17.956Z,99.90
2017-09-22T18:49:44.305Z,99.90
2017-09-22T18:52:12.317Z,99.90
2017-09-22T18:54:38.642Z,99.90
2017-09-22T18:57:05.005Z,99.90
2017-09-22T18:59:32.070Z,99.90
2017-09-22T19:01:59.854Z,99.90
2017-09-22T19:04:26.974Z,99.90
2017-09-22T19:06:53.277Z,99.90
2017-09-22T19:09:19.806Z,99.90
2017-09-22T19:11:46.158Z,99.90
2017-09-22T19:14:13.212Z,99.90
2017-09-22T19:16:39.607Z,99.90
2017-09-22T19:19:05.968Z,99.90
2017-09-22T19:21:33.767Z,99.90
2017-09-22T19:24:00.358Z,99.90
2017-09-22T19:26:27.497Z,99.90
2017-09-22T19:28:53.803Z,99.90
2017-09-22T19:31:21.486Z,99.90
2017-09-22T19:33:47.860Z,99.90
2017-09-22T19:36:15.790Z,99.90
2017-09-22T19:38:42.130Z,99.90
2017-09-22T19:41:08.451Z,99.90
2017-09-22T19:43:34.826Z,99.90
2017-09-22T19:46:01.129Z,99.90
2017-09-22T19:48:27.489Z,99.90
2017-09-22T19:50:54.827Z,99.90
2017-09-22T19:53:21.922Z,99.90
2017-09-22T19:55:48.297Z,99.90
2017-09-22T19:58:15.469Z,99.90
2017-09-22T20:00:43.409Z,99.90
2017-09-22T20:03:09.789Z,99.90
2017-09-22T20:05:36.095Z,99.90
2017-09-22T20:08:03.218Z,99.90
2017-09-22T20:10:29.529Z,99.90
2017-09-22T20:12:55.854Z,99.90
2017-09-22T20:15:22.221Z,99.90
2017-09-22T20:17:48.539Z,99.90
2017-09-22T20:20:14.945Z,99.90
2017-09-22T20:22:42.105Z,99.90
2017-09-22T20:25:08.516Z,99.90
2017-09-22T20:27:34.994Z,99.90
2017-09-22T20:30:01.467Z,99.90
2017-09-22T20:32:28.875Z,99.90
2017-09-22T20:34:55.984Z,99.90
2017-09-22T20:37:22.302Z,99.90
2017-09-22T20:39:49.403Z,99.90
2017-09-22T20:42:15.756Z,99.90
2017-09-22T20:44:42.825Z,99.90
2017-09-22T20:47:09.868Z,99.90
2017-09-22T20:49:36.938Z,99.90
2017-09-22T20:52:03.247Z,99.90
2017-09-22T20:54:31.059Z,99.90
2017-09-22T20:56:57.435Z,99.90
2017-09-22T20:59:23.836Z,99.90
2017-09-22T21:01:50.176Z,99.90
2017-09-22T21:04:16.499Z,99.90
2017-09-22T21:06:42.860Z,99.90
2017-09-22T21:09:09.187Z,99.90
2017-09-22T21:11:35.498Z,99.90
2017-09-22T21:14:01.829Z,99.90
2017-09-22T21:16:28.148Z,99.90
2017-09-22T21:18:54.459Z,99.90
2017-09-22T21:21:20.822Z,99.90
2017-09-22T21:23:47.173Z,99.90
2017-09-22T21:26:14.287Z,99.90
2017-09-22T21:28:40.762Z,99.90
2017-09-22T21:31:07.133Z,99.90
2017-09-22T21:33:33.448Z,99.90
2017-09-22T21:35:59.920Z,99.90
2017-09-22T21:38:26.485Z,99.90
2017-09-22T21:40:52.937Z,99.90
2017-09-22T21:43:19.981Z,99.90
2017-09-22T21:45:47.010Z,99.90
2017-09-22T21:48:13.490Z,99.90
2017-09-22T21:50:39.863Z,99.90
2017-09-22T21:53:06.170Z,99.90
2017-09-22T21:55:32.503Z,99.90
2017-09-22T21:57:58.853Z,99.90
2017-09-22T22:00:25.188Z,99.90
2017-09-22T22:02:52.334Z,99.90
2017-09-22T22:05:25.614Z,99.90
2017-09-22T22:07:51.910Z,99.90
2017-09-22T22:10:18.247Z,99.90
2017-09-22T22:12:44.646Z,99.90
2017-09-22T22:15:10.983Z,99.90
2017-09-22T22:17:38.945Z,99.90
2017-09-22T22:20:05.974Z,99.90
2017-09-22T22:22:32.263Z,99.90
2017-09-22T22:24:58.577Z,99.90
2017-09-22T22:27:24.862Z,99.90
2017-09-22T22:29:51.173Z,99.90
2017-09-22T22:32:17.448Z,99.90
2017-09-22T22:34:44.479Z,99.90
2017-09-22T22:37:11.509Z,99.90
2017-09-22T22:39:37.772Z,99.90
2017-09-22T22:42:04.809Z,99.90
2017-09-22T22:44:31.121Z,99.90
2017-09-22T22:46:58.885Z,99.90
2017-09-22T22:49:25.929Z,99.90
2017-09-22T22:51:53.685Z,99.90
2017-09-22T22:54:20.005Z,99.90
2017-09-22T22:56:46.288Z,99.90
2017-09-22T22:59:13.305Z,99.90
2017-09-22T23:01:39.589Z,99.90
2017-09-22T23:04:05.901Z,99.90
2017-09-22T23:06:32.948Z,99.90
2017-09-22T23:08:59.240Z,99.90
2017-09-22T23:11:25.518Z,99.90
2017-09-22T23:13:51.808Z,99.90
2017-09-22T23:16:18.836Z,99.90
2017-09-22T23:18:45.117Z,99.90
2017-09-22T23:21:11.413Z,99.90
2017-09-22T23:23:38.451Z,99.90
2017-09-22T23:26:05.490Z,99.90
2017-09-22T23:28:31.775Z,99.90
2017-09-22T23:30:58.073Z,99.90
2017-09-22T23:33:25.084Z,99.90
2017-09-22T23:35:51.369Z,99.90
2017-09-22T23:38:17.658Z,99.90
2017-09-22T23:40:43.951Z,99.90
2017-09-22T23:43:10.271Z,99.90
2017-09-22T23:45:36.553Z,99.90
2017-09-22T23:48:02.858Z,99.90
2017-09-22T23:50:29.128Z,99.90
2017-09-22T23:52:56.153Z,99.90
2017-09-22T23:55:22.473Z,99.90
2017-09-22T23:57:48.750Z,99.90
